sensor_id;sensor_type;location;lat;lon;timestamp;pressure;altitude;pressure_sealevel;temperature;humidity
75594;BME280;64176;49.156;7.810;2024-01-30T00:00:28;100527.03;;;-0.03;100.00
75594;BME280;64176;49.156;7.810;2024-01-30T00:03:12;100543.28;;;-0.01;100.00
75594;BME280;64176;49.156;7.810;2024-01-30T00:05:58;100545.22;;;0.03;100.00
75594;BME280;64176;49.156;7.810;2024-01-30T00:08:42;100544.56;;;0.06;100.00
75594;BME280;64176;49.156;7.810;2024-01-30T00:11:28;100547.25;;;-0.05;100.00
75594;BME280;64176;49.156;7.810;2024-01-30T00:14:15;100537.31;;;-0.02;100.00
75594;BME280;64176;49.156;7.810;2024-01-30T00:16:59;100539.84;;;-0.02;100.00
75594;BME280;64176;49.156;7.810;2024-01-30T00:19:46;100533.19;;;0.00;100.00
75594;BME280;64176;49.156;7.810;2024-01-30T00:22:33;100547.22;;;0.07;100.00
75594;BME280;64176;49.156;7.810;2024-01-30T00:25:25;100549.25;;;-0.01;100.00
75594;BME280;64176;49.156;7.810;2024-01-30T00:28:11;100539.31;;;-0.09;100.00
75594;BME280;64176;49.156;7.810;2024-01-30T00:30:55;100548.03;;;-0.06;100.00
75594;BME280;64176;49.156;7.810;2024-01-30T00:33:40;100551.72;;;-0.14;100.00
75594;BME280;64176;49.156;7.810;2024-01-30T00:36:24;100557.06;;;-0.22;100.00
75594;BME280;64176;49.156;7.810;2024-01-30T00:39:08;100551.41;;;-0.18;100.00
75594;BME280;64176;49.156;7.810;2024-01-30T00:41:53;100553.63;;;-0.23;100.00
75594;BME280;64176;49.156;7.810;2024-01-30T00:44:37;100554.56;;;-0.09;100.00
75594;BME280;64176;49.156;7.810;2024-01-30T00:47:24;100525.16;;;-0.30;100.00
75594;BME280;64176;49.156;7.810;2024-01-30T00:50:12;100547.34;;;-0.28;100.00
75594;BME280;64176;49.156;7.810;2024-01-30T00:52:56;100522.25;;;-0.48;100.00
75594;BME280;64176;49.156;7.810;2024-01-30T00:55:40;100552.94;;;-0.20;100.00
75594;BME280;64176;49.156;7.810;2024-01-30T00:58:24;100541.75;;;-0.35;100.00
75594;BME280;64176;49.156;7.810;2024-01-30T01:01:09;100551.09;;;-0.23;100.00
75594;BME280;64176;49.156;7.810;2024-01-30T01:03:52;100543.25;;;-0.26;100.00
75594;BME280;64176;49.156;7.810;2024-01-30T01:06:37;100546.09;;;-0.21;100.00
75594;BME280;64176;49.156;7.810;2024-01-30T01:09:21;100547.56;;;-0.25;100.00
75594;BME280;64176;49.156;7.810;2024-01-30T01:12:06;100546.34;;;-0.30;100.00
75594;BME280;64176;49.156;7.810;2024-01-30T01:14:50;100532.00;;;-0.29;100.00
75594;BME280;64176;49.156;7.810;2024-01-30T01:17:39;100547.69;;;-0.23;100.00
75594;BME280;64176;49.156;7.810;2024-01-30T01:20:24;100534.44;;;-0.31;100.00
75594;BME280;64176;49.156;7.810;2024-01-30T01:23:08;100547.13;;;-0.31;100.00
75594;BME280;64176;49.156;7.810;2024-01-30T01:26:05;100541.63;;;-0.37;100.00
75594;BME280;64176;49.156;7.810;2024-01-30T01:28:49;100534.03;;;-0.37;100.00
75594;BME280;64176;49.156;7.810;2024-01-30T01:31:36;100539.09;;;-0.37;100.00
75594;BME280;64176;49.156;7.810;2024-01-30T01:34:24;100544.25;;;-0.24;100.00
75594;BME280;64176;49.156;7.810;2024-01-30T01:37:11;100552.72;;;-0.48;100.00
75594;BME280;64176;49.156;7.810;2024-01-30T01:40:00;100548.94;;;-0.42;100.00
75594;BME280;64176;49.156;7.810;2024-01-30T01:42:44;100541.97;;;-0.44;100.00
75594;BME280;64176;49.156;7.810;2024-01-30T01:45:28;100546.25;;;-0.31;100.00
75594;BME280;64176;49.156;7.810;2024-01-30T01:48:12;100545.34;;;-0.32;100.00
75594;BME280;64176;49.156;7.810;2024-01-30T01:50:59;100539.34;;;-0.46;100.00
75594;BME280;64176;49.156;7.810;2024-01-30T01:53:45;100545.50;;;-0.42;100.00
75594;BME280;64176;49.156;7.810;2024-01-30T01:56:30;100554.34;;;-0.37;100.00
75594;BME280;64176;49.156;7.810;2024-01-30T01:59:20;100541.66;;;-0.49;100.00
75594;BME280;64176;49.156;7.810;2024-01-30T02:02:07;100557.34;;;-0.54;100.00
75594;BME280;64176;49.156;7.810;2024-01-30T02:04:57;100536.06;;;-0.56;100.00
75594;BME280;64176;49.156;7.810;2024-01-30T02:07:47;100539.13;;;-0.49;100.00
75594;BME280;64176;49.156;7.810;2024-01-30T02:10:31;100538.69;;;-0.55;100.00
75594;BME280;64176;49.156;7.810;2024-01-30T02:13:15;100547.09;;;-0.56;100.00
75594;BME280;64176;49.156;7.810;2024-01-30T02:15:59;100538.69;;;-0.55;100.00
75594;BME280;64176;49.156;7.810;2024-01-30T02:18:43;100540.69;;;-0.51;100.00
75594;BME280;64176;49.156;7.810;2024-01-30T02:21:31;100533.66;;;-0.66;100.00
75594;BME280;64176;49.156;7.810;2024-01-30T02:24:17;100531.13;;;-0.66;100.00
75594;BME280;64176;49.156;7.810;2024-01-30T02:27:04;100542.03;;;-0.56;100.00
75594;BME280;64176;49.156;7.810;2024-01-30T02:29:50;100522.94;;;-0.62;100.00
75594;BME280;64176;49.156;7.810;2024-01-30T02:32:35;100531.00;;;-0.56;100.00
75594;BME280;64176;49.156;7.810;2024-01-30T02:35:18;100536.72;;;-0.59;100.00
75594;BME280;64176;49.156;7.810;2024-01-30T02:38:02;100539.03;;;-0.62;100.00
75594;BME280;64176;49.156;7.810;2024-01-30T02:40:47;100535.09;;;-0.70;100.00
75594;BME280;64176;49.156;7.810;2024-01-30T02:43:31;100519.28;;;-0.66;100.00
75594;BME280;64176;49.156;7.810;2024-01-30T02:46:15;100519.28;;;-0.66;100.00
75594;BME280;64176;49.156;7.810;2024-01-30T02:48:58;100534.09;;;-0.60;100.00
75594;BME280;64176;49.156;7.810;2024-01-30T02:51:45;100520.19;;;-0.77;100.00
75594;BME280;64176;49.156;7.810;2024-01-30T02:54:32;100540.19;;;-0.82;100.00
75594;BME280;64176;49.156;7.810;2024-01-30T02:57:16;100523.72;;;-0.75;100.00
75594;BME280;64176;49.156;7.810;2024-01-30T03:00:04;100531.03;;;-0.80;100.00
75594;BME280;64176;49.156;7.810;2024-01-30T03:02:49;100533.47;;;-0.81;100.00
75594;BME280;64176;49.156;7.810;2024-01-30T03:05:39;100525.06;;;-0.80;100.00
75594;BME280;64176;49.156;7.810;2024-01-30T03:08:22;100521.31;;;-0.74;100.00
75594;BME280;64176;49.156;7.810;2024-01-30T03:11:07;100536.22;;;-0.66;100.00
75594;BME280;64176;49.156;7.810;2024-01-30T03:13:51;100519.75;;;-0.71;100.00
75594;BME280;64176;49.156;7.810;2024-01-30T03:16:38;100535.31;;;-0.67;100.00
75594;BME280;64176;49.156;7.810;2024-01-30T03:19:22;100532.44;;;-0.71;100.00
75594;BME280;64176;49.156;7.810;2024-01-30T03:22:06;100525.22;;;-0.90;100.00
75594;BME280;64176;49.156;7.810;2024-01-30T03:24:49;100533.13;;;-0.86;100.00
75594;BME280;64176;49.156;7.810;2024-01-30T03:27:34;100529.81;;;-0.85;100.00
75594;BME280;64176;49.156;7.810;2024-01-30T03:30:23;100521.00;;;-0.78;100.00
75594;BME280;64176;49.156;7.810;2024-01-30T03:33:06;100536.22;;;-0.78;100.00
75594;BME280;64176;49.156;7.810;2024-01-30T03:35:50;100533.69;;;-0.90;100.00
75594;BME280;64176;49.156;7.810;2024-01-30T03:38:35;100522.88;;;-0.87;100.00
75594;BME280;64176;49.156;7.810;2024-01-30T03:41:25;100536.53;;;-0.74;100.00
75594;BME280;64176;49.156;7.810;2024-01-30T03:44:11;100530.69;;;-0.84;100.00
75594;BME280;64176;49.156;7.810;2024-01-30T03:46:58;100536.31;;;-0.88;100.00
75594;BME280;64176;49.156;7.810;2024-01-30T03:49:42;100533.25;;;-0.96;100.00
75594;BME280;64176;49.156;7.810;2024-01-30T03:52:26;100532.25;;;-0.86;100.00
75594;BME280;64176;49.156;7.810;2024-01-30T03:55:12;100520.19;;;-0.77;100.00
75594;BME280;64176;49.156;7.810;2024-01-30T03:57:58;100521.66;;;-0.81;100.00
75594;BME280;64176;49.156;7.810;2024-01-30T04:00:42;100519.38;;;-0.89;100.00
75594;BME280;64176;49.156;7.810;2024-01-30T04:03:32;100522.44;;;-0.93;100.00
75594;BME280;64176;49.156;7.810;2024-01-30T04:06:16;100519.81;;;-1.06;100.00
75594;BME280;64176;49.156;7.810;2024-01-30T04:09:00;100528.41;;;-0.93;100.00
75594;BME280;64176;49.156;7.810;2024-01-30T04:11:46;100523.88;;;-0.97;100.00
75594;BME280;64176;49.156;7.810;2024-01-30T04:14:35;100507.34;;;-1.15;100.00
75594;BME280;64176;49.156;7.810;2024-01-30T04:17:20;100521.22;;;-0.98;100.00
75594;BME280;64176;49.156;7.810;2024-01-30T04:20:05;100522.69;;;-1.02;100.00
75594;BME280;64176;49.156;7.810;2024-01-30T04:22:55;100524.66;;;-1.10;100.00
75594;BME280;64176;49.156;7.810;2024-01-30T04:25:41;100521.13;;;-1.00;100.00
75594;BME280;64176;49.156;7.810;2024-01-30T04:28:28;100515.38;;;-0.97;100.00
75594;BME280;64176;49.156;7.810;2024-01-30T04:31:16;100522.56;;;-1.03;100.00
75594;BME280;64176;49.156;7.810;2024-01-30T04:34:00;100509.78;;;-1.05;100.00
75594;BME280;64176;49.156;7.810;2024-01-30T04:36:44;100502.81;;;-1.07;100.00
75594;BME280;64176;49.156;7.810;2024-01-30T04:39:33;100521.22;;;-0.98;100.00
75594;BME280;64176;49.156;7.810;2024-01-30T04:42:20;100517.16;;;-1.08;100.00
75594;BME280;64176;49.156;7.810;2024-01-30T04:45:06;100516.63;;;-1.16;100.00
75594;BME280;64176;49.156;7.810;2024-01-30T04:47:53;100512.66;;;-1.12;100.00
75594;BME280;64176;49.156;7.810;2024-01-30T04:50:37;100528.41;;;-1.04;100.00
75594;BME280;64176;49.156;7.810;2024-01-30T04:53:21;100516.50;;;-1.17;100.00
75594;BME280;64176;49.156;7.810;2024-01-30T04:56:05;100527.66;;;-1.15;100.00
75594;BME280;64176;49.156;7.810;2024-01-30T04:58:49;100529.53;;;-1.13;100.00
75594;BME280;64176;49.156;7.810;2024-01-30T05:01:39;100534.72;;;-1.11;100.00
75594;BME280;64176;49.156;7.810;2024-01-30T05:04:23;100527.19;;;-1.10;100.00
75594;BME280;64176;49.156;7.810;2024-01-30T05:07:09;100517.38;;;-1.17;100.00
75594;BME280;64176;49.156;7.810;2024-01-30T05:09:53;100529.84;;;-1.20;100.00
75594;BME280;64176;49.156;7.810;2024-01-30T05:12:40;100536.25;;;-1.13;100.00
75594;BME280;64176;49.156;7.810;2024-01-30T05:15:27;100523.47;;;-1.15;100.00
75594;BME280;64176;49.156;7.810;2024-01-30T05:18:13;100530.94;;;-1.16;100.00
75594;BME280;64176;49.156;7.810;2024-01-30T05:21:00;100534.03;;;-1.20;100.00
75594;BME280;64176;49.156;7.810;2024-01-30T05:23:47;100543.28;;;-1.21;100.00
75594;BME280;64176;49.156;7.810;2024-01-30T05:26:34;100545.38;;;-1.27;100.00
75594;BME280;64176;49.156;7.810;2024-01-30T05:29:18;100546.94;;;-1.05;100.00
75594;BME280;64176;49.156;7.810;2024-01-30T05:32:05;100550.59;;;-1.14;100.00
75594;BME280;64176;49.156;7.810;2024-01-30T05:34:50;100541.31;;;-1.25;100.00
75594;BME280;64176;49.156;7.810;2024-01-30T05:37:36;100564.16;;;-1.13;100.00
75594;BME280;64176;49.156;7.810;2024-01-30T05:40:23;100547.03;;;-1.27;100.00
75594;BME280;64176;49.156;7.810;2024-01-30T05:43:07;100546.50;;;-1.23;100.00
75594;BME280;64176;49.156;7.810;2024-01-30T05:45:52;100552.34;;;-1.24;100.00
75594;BME280;64176;49.156;7.810;2024-01-30T05:48:36;100555.19;;;-1.20;100.00
75594;BME280;64176;49.156;7.810;2024-01-30T05:51:20;100546.94;;;-1.17;100.00
75594;BME280;64176;49.156;7.810;2024-01-30T05:54:04;100544.50;;;-1.16;100.00
75594;BME280;64176;49.156;7.810;2024-01-30T05:56:53;100549.47;;;-1.17;100.00
75594;BME280;64176;49.156;7.810;2024-01-30T05:59:39;100556.06;;;-1.19;100.00
75594;BME280;64176;49.156;7.810;2024-01-30T06:02:23;100547.03;;;-1.27;100.00
75594;BME280;64176;49.156;7.810;2024-01-30T06:05:08;100538.78;;;-1.25;100.00
75594;BME280;64176;49.156;7.810;2024-01-30T06:07:52;100547.94;;;-1.15;100.00
75594;BME280;64176;49.156;7.810;2024-01-30T06:10:36;100558.63;;;-1.19;100.00
75594;BME280;64176;49.156;7.810;2024-01-30T06:13:22;100552.34;;;-1.36;100.00
75594;BME280;64176;49.156;7.810;2024-01-30T06:16:10;100551.09;;;-1.41;100.00
75594;BME280;64176;49.156;7.810;2024-01-30T06:18:56;100550.56;;;-1.37;100.00
75594;BME280;64176;49.156;7.810;2024-01-30T06:21:45;100553.22;;;-1.24;100.00
75594;BME280;64176;49.156;7.810;2024-01-30T06:24:29;100545.84;;;-1.44;100.00
75594;BME280;64176;49.156;7.810;2024-01-30T06:27:14;100555.66;;;-1.25;100.00
75594;BME280;64176;49.156;7.810;2024-01-30T06:30:04;100550.13;;;-1.31;100.00
75594;BME280;64176;49.156;7.810;2024-01-30T06:32:51;100549.69;;;-1.26;100.00
75594;BME280;64176;49.156;7.810;2024-01-30T06:35:35;100553.22;;;-1.24;100.00
75594;BME280;64176;49.156;7.810;2024-01-30T06:38:20;100554.97;;;-1.34;100.00
75594;BME280;64176;49.156;7.810;2024-01-30T06:41:04;100548.34;;;-1.32;100.00
75594;BME280;64176;49.156;7.810;2024-01-30T06:43:48;100556.75;;;-1.22;100.00
75594;BME280;64176;49.156;7.810;2024-01-30T06:46:32;100546.03;;;-1.29;100.00
75594;BME280;64176;49.156;7.810;2024-01-30T06:49:18;100534.88;;;-1.43;100.00
75594;BME280;64176;49.156;7.810;2024-01-30T06:52:04;100542.31;;;-1.34;100.00
75594;BME280;64176;49.156;7.810;2024-01-30T06:54:51;100551.13;;;-1.29;100.00
75594;BME280;64176;49.156;7.810;2024-01-30T06:57:37;100552.75;;;-1.41;100.00
75594;BME280;64176;49.156;7.810;2024-01-30T07:00:21;100561.91;;;-1.32;100.00
75594;BME280;64176;49.156;7.810;2024-01-30T07:03:06;100568.63;;;-1.32;100.00
75594;BME280;64176;49.156;7.810;2024-01-30T07:05:51;100555.63;;;-1.37;100.00
75594;BME280;64176;49.156;7.810;2024-01-30T07:08:35;100546.91;;;-1.52;100.00
75594;BME280;64176;49.156;7.810;2024-01-30T07:11:22;100560.59;;;-1.38;100.00
75594;BME280;64176;49.156;7.810;2024-01-30T07:14:10;100570.50;;;-1.30;100.00
75594;BME280;64176;49.156;7.810;2024-01-30T07:16:56;100562.03;;;-1.30;100.00
75594;BME280;64176;49.156;7.810;2024-01-30T07:19:43;100570.75;;;-1.27;100.00
75594;BME280;64176;49.156;7.810;2024-01-30T07:22:29;100569.75;;;-1.29;100.00
75594;BME280;64176;49.156;7.810;2024-01-30T07:25:14;100565.66;;;-1.38;100.00
75594;BME280;64176;49.156;7.810;2024-01-30T07:28:01;100564.13;;;-1.36;100.00
75594;BME280;64176;49.156;7.810;2024-01-30T07:30:47;100578.13;;;-1.18;100.00
75594;BME280;64176;49.156;7.810;2024-01-30T07:33:33;100579.56;;;-1.10;100.00
75594;BME280;64176;49.156;7.810;2024-01-30T07:36:22;100572.31;;;-1.05;100.00
75594;BME280;64176;49.156;7.810;2024-01-30T07:39:10;100573.41;;;-1.02;100.00
75594;BME280;64176;49.156;7.810;2024-01-30T07:41:57;100569.75;;;-0.94;100.00
75594;BME280;64176;49.156;7.810;2024-01-30T07:44:40;100574.31;;;-1.01;100.00
75594;BME280;64176;49.156;7.810;2024-01-30T07:47:24;100572.66;;;-0.89;100.00
75594;BME280;64176;49.156;7.810;2024-01-30T07:50:11;100584.53;;;-0.88;100.00
75594;BME280;64176;49.156;7.810;2024-01-30T07:52:56;100583.31;;;-0.70;100.00
75594;BME280;64176;49.156;7.810;2024-01-30T07:55:43;100584.88;;;-0.72;100.00
75594;BME280;64176;49.156;7.810;2024-01-30T07:58:32;100575.72;;;-0.82;100.00
75594;BME280;64176;49.156;7.810;2024-01-30T08:01:19;100585.88;;;-0.70;100.00
75594;BME280;64176;49.156;7.810;2024-01-30T08:04:06;100586.97;;;-0.66;100.00
75594;BME280;64176;49.156;7.810;2024-01-30T08:06:49;100595.44;;;-0.66;100.00
75594;BME280;64176;49.156;7.810;2024-01-30T08:09:38;100582.75;;;-0.66;100.00
75594;BME280;64176;49.156;7.810;2024-01-30T08:12:25;100594.53;;;-0.55;100.00
75594;BME280;64176;49.156;7.810;2024-01-30T08:15:09;100593.34;;;-0.48;100.00
75594;BME280;64176;49.156;7.810;2024-01-30T08:17:53;100599.53;;;-0.45;100.00
75594;BME280;64176;49.156;7.810;2024-01-30T08:20:41;100598.72;;;-0.44;100.00
75594;BME280;64176;49.156;7.810;2024-01-30T08:23:28;100600.59;;;-0.41;100.00
75594;BME280;64176;49.156;7.810;2024-01-30T08:26:17;100603.13;;;-0.41;100.00
75594;BME280;64176;49.156;7.810;2024-01-30T08:29:03;100606.13;;;-0.47;100.00
75594;BME280;64176;49.156;7.810;2024-01-30T08:31:47;100595.06;;;-0.35;100.00
75594;BME280;64176;49.156;7.810;2024-01-30T08:34:34;100599.28;;;-0.36;100.00
75594;BME280;64176;49.156;7.810;2024-01-30T08:37:18;100599.56;;;-0.31;100.00
75594;BME280;64176;49.156;7.810;2024-01-30T08:40:05;100607.63;;;-0.25;100.00
75594;BME280;64176;49.156;7.810;2024-01-30T08:42:49;100582.34;;;-0.24;100.00
75594;BME280;64176;49.156;7.810;2024-01-30T08:45:38;100597.44;;;-0.14;100.00
75594;BME280;64176;49.156;7.810;2024-01-30T08:48:27;100584.75;;;-0.14;100.00
75594;BME280;64176;49.156;7.810;2024-01-30T08:51:11;100585.25;;;-0.06;100.00
75594;BME280;64176;49.156;7.810;2024-01-30T08:54:02;100583.94;;;-0.01;100.00
75594;BME280;64176;49.156;7.810;2024-01-30T08:56:46;100594.59;;;0.07;100.00
75594;BME280;64176;49.156;7.810;2024-01-30T08:59:30;100597.88;;;0.17;100.00
75594;BME280;64176;49.156;7.810;2024-01-30T09:02:14;100587.81;;;0.19;100.00
75594;BME280;64176;49.156;7.810;2024-01-30T09:05:02;100591.75;;;0.27;100.00
75594;BME280;64176;49.156;7.810;2024-01-30T09:07:51;100584.19;;;0.40;100.00
75594;BME280;64176;49.156;7.810;2024-01-30T09:10:38;100594.56;;;0.43;100.00
75594;BME280;64176;49.156;7.810;2024-01-30T09:13:22;100580.84;;;0.41;100.00
75594;BME280;64176;49.156;7.810;2024-01-30T09:16:06;100589.41;;;0.55;100.00
75594;BME280;64176;49.156;7.810;2024-01-30T09:18:53;100596.75;;;0.63;100.00
75594;BME280;64176;49.156;7.810;2024-01-30T09:21:42;100591.94;;;0.55;100.00
75594;BME280;64176;49.156;7.810;2024-01-30T09:24:26;100596.38;;;0.70;100.00
75594;BME280;64176;49.156;7.810;2024-01-30T09:27:11;100581.41;;;0.75;100.00
75594;BME280;64176;49.156;7.810;2024-01-30T09:30:00;100587.50;;;0.77;100.00
75594;BME280;64176;49.156;7.810;2024-01-30T09:32:44;100591.19;;;0.82;100.00
75594;BME280;64176;49.156;7.810;2024-01-30T09:35:28;100608.34;;;0.98;100.00
75594;BME280;64176;49.156;7.810;2024-01-30T09:38:14;100598.78;;;1.07;100.00
75594;BME280;64176;49.156;7.810;2024-01-30T09:41:03;100598.97;;;1.10;100.00
75594;BME280;64176;49.156;7.810;2024-01-30T09:43:54;100597.38;;;1.12;100.00
75594;BME280;64176;49.156;7.810;2024-01-30T09:46:41;100603.09;;;1.21;100.00
75594;BME280;64176;49.156;7.810;2024-01-30T09:49:25;100605.81;;;1.24;100.00
75594;BME280;64176;49.156;7.810;2024-01-30T09:52:14;100589.38;;;1.32;100.00
75594;BME280;64176;49.156;7.810;2024-01-30T09:55:00;100598.63;;;1.45;100.00
75594;BME280;64176;49.156;7.810;2024-01-30T09:57:45;100602.84;;;1.44;100.00
75594;BME280;64176;49.156;7.810;2024-01-30T10:00:31;100599.03;;;1.51;100.00
75594;BME280;64176;49.156;7.810;2024-01-30T10:03:15;100604.69;;;1.60;100.00
75594;BME280;64176;49.156;7.810;2024-01-30T10:06:00;100607.50;;;1.78;100.00
75594;BME280;64176;49.156;7.810;2024-01-30T10:08:50;100603.78;;;1.86;100.00
75594;BME280;64176;49.156;7.810;2024-01-30T10:11:33;100597.16;;;2.03;100.00
75594;BME280;64176;49.156;7.810;2024-01-30T10:14:20;100594.50;;;2.01;100.00
75594;BME280;64176;49.156;7.810;2024-01-30T10:17:04;100595.56;;;2.05;100.00
75594;BME280;64176;49.156;7.810;2024-01-30T10:19:49;100607.00;;;2.11;100.00
75594;BME280;64176;49.156;7.810;2024-01-30T10:22:33;100605.03;;;2.21;100.00
75594;BME280;64176;49.156;7.810;2024-01-30T10:25:21;100607.06;;;2.26;100.00
75594;BME280;64176;49.156;7.810;2024-01-30T10:28:11;100607.41;;;2.32;100.00
75594;BME280;64176;49.156;7.810;2024-01-30T10:30:59;100605.00;;;2.48;100.00
75594;BME280;64176;49.156;7.810;2024-01-30T10:33:44;100605.03;;;2.63;100.00
75594;BME280;64176;49.156;7.810;2024-01-30T10:36:32;100604.84;;;2.75;100.00
75594;BME280;64176;49.156;7.810;2024-01-30T10:39:23;100594.63;;;2.89;100.00
75594;BME280;64176;49.156;7.810;2024-01-30T10:42:17;100593.94;;;2.92;100.00
75594;BME280;64176;49.156;7.810;2024-01-30T10:45:08;100596.56;;;2.93;100.00
75594;BME280;64176;49.156;7.810;2024-01-30T10:47:55;100586.78;;;3.01;100.00
75594;BME280;64176;49.156;7.810;2024-01-30T10:50:42;100585.91;;;3.01;100.00
75594;BME280;64176;49.156;7.810;2024-01-30T10:53:31;100588.72;;;3.05;100.00
75594;BME280;64176;49.156;7.810;2024-01-30T10:56:22;100588.97;;;3.10;100.00
75594;BME280;64176;49.156;7.810;2024-01-30T10:59:09;100597.31;;;3.22;100.00
75594;BME280;64176;49.156;7.810;2024-01-30T11:01:56;100597.84;;;3.31;100.00
75594;BME280;64176;49.156;7.810;2024-01-30T11:04:41;100592.91;;;3.34;100.00
75594;BME280;64176;49.156;7.810;2024-01-30T11:07:26;100589.03;;;3.41;100.00
75594;BME280;64176;49.156;7.810;2024-01-30T11:10:13;100596.31;;;3.49;100.00
75594;BME280;64176;49.156;7.810;2024-01-30T11:12:59;100579.47;;;3.53;100.00
75594;BME280;64176;49.156;7.810;2024-01-30T11:15:43;100573.72;;;3.57;100.00
75594;BME280;64176;49.156;7.810;2024-01-30T11:18:29;100571.25;;;3.58;100.00
75594;BME280;64176;49.156;7.810;2024-01-30T11:21:16;100571.13;;;3.72;100.00
75594;BME280;64176;49.156;7.810;2024-01-30T11:24:02;100565.44;;;3.77;100.00
75594;BME280;64176;49.156;7.810;2024-01-30T11:26:49;100576.00;;;3.83;100.00
75594;BME280;64176;49.156;7.810;2024-01-30T11:29:34;100579.31;;;3.97;100.00
75594;BME280;64176;49.156;7.810;2024-01-30T11:32:24;100559.94;;;4.02;100.00
75594;BME280;64176;49.156;7.810;2024-01-30T11:35:08;100567.97;;;4.08;100.00
75594;BME280;64176;49.156;7.810;2024-01-30T11:37:57;100559.06;;;4.18;100.00
75594;BME280;64176;49.156;7.810;2024-01-30T11:40:42;100536.06;;;4.18;100.00
75594;BME280;64176;49.156;7.810;2024-01-30T11:43:27;100548.91;;;4.19;100.00
75594;BME280;64176;49.156;7.810;2024-01-30T11:46:14;100551.78;;;4.25;100.00
75594;BME280;64176;49.156;7.810;2024-01-30T11:48:58;100543.13;;;4.39;100.00
75594;BME280;64176;49.156;7.810;2024-01-30T11:51:45;100548.53;;;4.46;100.00
75594;BME280;64176;49.156;7.810;2024-01-30T11:54:29;100541.13;;;4.50;100.00
75594;BME280;64176;49.156;7.810;2024-01-30T11:57:16;100538.56;;;4.50;100.00
75594;BME280;64176;49.156;7.810;2024-01-30T12:00:00;100543.41;;;4.62;100.00
75594;BME280;64176;49.156;7.810;2024-01-30T12:02:49;100548.59;;;4.63;100.00
75594;BME280;64176;49.156;7.810;2024-01-30T12:05:33;100545.69;;;4.73;100.00
75594;BME280;64176;49.156;7.810;2024-01-30T12:08:18;100536.47;;;4.77;100.00
75594;BME280;64176;49.156;7.810;2024-01-30T12:11:07;100536.50;;;4.95;100.00
75594;BME280;64176;49.156;7.810;2024-01-30T12:13:56;100541.63;;;4.95;100.00
75594;BME280;64176;49.156;7.810;2024-01-30T12:16:41;100534.66;;;5.10;100.00
75594;BME280;64176;49.156;7.810;2024-01-30T12:19:25;100532.97;;;5.10;100.00
75594;BME280;64176;49.156;7.810;2024-01-30T12:22:10;100523.75;;;5.14;100.00
75594;BME280;64176;49.156;7.810;2024-01-30T12:24:57;100511.88;;;5.16;100.00
75594;BME280;64176;49.156;7.810;2024-01-30T12:27:51;100525.31;;;5.47;100.00
75594;BME280;64176;49.156;7.810;2024-01-30T12:30:35;100512.56;;;5.49;100.00
75594;BME280;64176;49.156;7.810;2024-01-30T12:33:21;100520.13;;;5.46;100.00
75594;BME280;64176;49.156;7.810;2024-01-30T12:36:06;100514.91;;;5.44;100.00
75594;BME280;64176;49.156;7.810;2024-01-30T12:38:53;100516.97;;;5.52;100.00
75594;BME280;64176;49.156;7.810;2024-01-30T12:41:37;100513.38;;;5.67;100.00
75594;BME280;64176;49.156;7.810;2024-01-30T12:44:21;100518.06;;;5.76;100.00
75594;BME280;64176;49.156;7.810;2024-01-30T12:47:08;100517.25;;;5.77;100.00
75594;BME280;64176;49.156;7.810;2024-01-30T12:49:52;100526.06;;;6.01;100.00
75594;BME280;64176;49.156;7.810;2024-01-30T12:52:39;100526.28;;;6.06;100.00
75594;BME280;64176;49.156;7.810;2024-01-30T12:55:23;100531.53;;;6.09;100.00
75594;BME280;64176;49.156;7.810;2024-01-30T12:58:08;100523.34;;;5.98;100.00
75594;BME280;64176;49.156;7.810;2024-01-30T13:01:02;100518.50;;;6.04;100.00
75594;BME280;64176;49.156;7.810;2024-01-30T13:03:46;100525.19;;;6.41;100.00
75594;BME280;64176;49.156;7.810;2024-01-30T13:06:33;100520.69;;;6.35;100.00
75594;BME280;64176;49.156;7.810;2024-01-30T13:09:17;100519.25;;;6.42;100.00
75594;BME280;64176;49.156;7.810;2024-01-30T13:12:01;100519.75;;;6.33;100.00
75594;BME280;64176;49.156;7.810;2024-01-30T13:14:47;100513.69;;;6.52;100.00
75594;BME280;64176;49.156;7.810;2024-01-30T13:17:36;100514.38;;;6.48;100.00
75594;BME280;64176;49.156;7.810;2024-01-30T13:20:20;100514.94;;;6.41;100.00
75594;BME280;64176;49.156;7.810;2024-01-30T13:23:07;100504.78;;;6.44;100.00
75594;BME280;64176;49.156;7.810;2024-01-30T13:25:51;100500.41;;;6.41;100.00
75594;BME280;64176;49.156;7.810;2024-01-30T13:28:35;100511.31;;;6.56;100.00
75594;BME280;64176;49.156;7.810;2024-01-30T13:31:24;100512.03;;;6.73;100.00
75594;BME280;64176;49.156;7.810;2024-01-30T13:34:08;100515.84;;;6.83;100.00
75594;BME280;64176;49.156;7.810;2024-01-30T13:36:52;100504.59;;;7.02;100.00
75594;BME280;64176;49.156;7.810;2024-01-30T13:39:39;100505.00;;;6.90;100.00
75594;BME280;64176;49.156;7.810;2024-01-30T13:42:28;100492.13;;;6.90;100.00
75594;BME280;64176;49.156;7.810;2024-01-30T13:45:12;100506.22;;;7.00;100.00
75594;BME280;64176;49.156;7.810;2024-01-30T13:47:56;100503.09;;;7.07;100.00
75594;BME280;64176;49.156;7.810;2024-01-30T13:50:42;100493.44;;;7.01;100.00
75594;BME280;64176;49.156;7.810;2024-01-30T13:53:26;100498.59;;;7.01;100.00
75594;BME280;64176;49.156;7.810;2024-01-30T13:56:11;100501.50;;;7.10;100.00
75594;BME280;64176;49.156;7.810;2024-01-30T13:58:55;100499.69;;;7.30;100.00
75594;BME280;64176;49.156;7.810;2024-01-30T14:01:45;100495.84;;;7.41;100.00
75594;BME280;64176;49.156;7.810;2024-01-30T14:04:31;100500.97;;;7.41;100.00
75594;BME280;64176;49.156;7.810;2024-01-30T14:07:15;100491.16;;;7.09;100.00
75594;BME280;64176;49.156;7.810;2024-01-30T14:10:04;100493.31;;;6.98;100.00
75594;BME280;64176;49.156;7.810;2024-01-30T14:12:49;100488.44;;;7.04;100.00
75594;BME280;64176;49.156;7.810;2024-01-30T14:15:33;100496.94;;;7.03;100.00
75594;BME280;64176;49.156;7.810;2024-01-30T14:18:20;100486.81;;;7.06;100.00